Accueil
METAR-TAF:

METAR-TAF

Aéroports :

Aéroport de Francfort-sur-le-Main

Francfort-sur-le-Main, Allemagne

latitude: 50-03N, longitude: 008-36E, altitude: 111 m

Observation

Le bulletin a été fait il y a 21 minutes, à 11:20 UTC
Vent 11 kt de est/nord-est
Température 4°C
Humidité 70%
Pression 1016 hPa
Visibilité 10 km ou plus
Ciel couvert à une hauteur de 1900 ft

METAR: EDDF 211120Z 06011KT 9999 OVC019 04/M01 Q1016 NOSIG

Heure: 12:41 (11:41 UTC)

Prévision

Le bulletin a été fait il y a 41 minutes, à 11:00 UTC
Prévision valable du 21 à 12 UTC au 22 à 18 UTC
Vent 8 kt de est/nord-est
Visibilité 10 km ou plus
Nuages fragmentés à une hauteur de 1500 ft
Probabilité 30% :
Temporairement
du 22 à 00 UTC au 22 à 09 UTC
Nuages épars à une hauteur de 1500 ft

TAF: EDDF 211100Z 2112/2218 06008KT 9999 BKN015 PROB30 TEMPO 2200/2209 SCT015

Observations et prévisions météorologiques de plus de 4000 aéroports (messages METAR et TAF).

Les stations disponibles sont représentées par des disques jaunes et rouges sur la carte.

Passer la souris dessus pour voir le nom de la station.

Cliquer dessus pour voir les observations et prévisions météorologiques.

Pour changer de carte: cliquez sur les boutons verts avec une croix noire pour zoomer, sur le bouton vert avec un tiret pour effectuer un zoom arrière, ou sur les flèches vertes pour les cartes adjacentes.


METAR-TAF: